createdAt,value
2022-12-18T00:06:45.426Z,100
2022-12-18T00:34:58.875Z,100
2022-12-18T01:03:08.622Z,100
2022-12-18T01:31:21.004Z,100
2022-12-18T01:59:24.270Z,100
2022-12-18T02:27:45.983Z,100
2022-12-18T02:55:55.481Z,100
2022-12-18T03:24:05.615Z,100
2022-12-18T03:52:16.596Z,100
2022-12-18T04:20:30.894Z,100
2022-12-18T04:48:32.212Z,100
2022-12-18T05:16:49.603Z,100
2022-12-18T05:45:03.297Z,100
2022-12-18T06:13:05.983Z,100
2022-12-18T06:41:08.241Z,100
2022-12-18T07:09:11.305Z,100
2022-12-18T07:37:27.978Z,100
2022-12-18T08:05:45.619Z,100
2022-12-18T08:33:45.623Z,100
2022-12-18T09:02:01.456Z,100
2022-12-18T09:30:09.666Z,79.92
2022-12-18T09:58:39.475Z,81.49
2022-12-18T10:26:32.859Z,91.68
2022-12-18T11:23:34.665Z,97.15
2022-12-18T11:52:07.934Z,95.92
2022-12-18T12:20:52.516Z,100
2022-12-18T12:49:42.939Z,100
2022-12-18T13:18:24.337Z,100
2022-12-18T13:46:47.867Z,98.08
2022-12-18T14:15:28.968Z,98.45
2022-12-18T14:44:12.995Z,99.11
2022-12-18T15:12:55.705Z,100
2022-12-18T15:41:45.351Z,100
2022-12-18T16:10:34.141Z,100
2022-12-18T16:39:25.459Z,100
2022-12-18T17:07:45.451Z,100
2022-12-18T17:36:34.580Z,100
2022-12-18T18:05:27.999Z,100
2022-12-18T18:33:32.609Z,100
2022-12-18T19:01:48.550Z,100
2022-12-18T19:29:53.433Z,100
2022-12-18T19:58:04.773Z,100
2022-12-18T20:26:14.501Z,100
2022-12-18T20:54:21.939Z,100
2022-12-18T21:23:21.498Z,100
2022-12-18T21:51:40.194Z,100
2022-12-18T22:20:48.757Z,100
2022-12-18T22:49:14.323Z,100
2022-12-18T23:17:54.479Z,100
2022-12-18T23:46:20.351Z,100
